sensor_id;sensor_type;location;lat;lon;timestamp;pressure;altitude;pressure_sealevel;temperature;humidity
75460;BME280;64039;53.060;9.342;2023-02-01T00:01:24;100962.03;;;4.36;100.00
75460;BME280;64039;53.060;9.342;2023-02-01T00:03:49;100964.09;;;4.43;100.00
75460;BME280;64039;53.060;9.342;2023-02-01T00:06:15;100955.34;;;4.39;100.00
75460;BME280;64039;53.060;9.342;2023-02-01T00:08:40;100954.38;;;4.37;100.00
75460;BME280;64039;53.060;9.342;2023-02-01T00:11:08;100950.31;;;4.43;100.00
75460;BME280;64039;53.060;9.342;2023-02-01T00:13:36;100963.22;;;4.43;100.00
75460;BME280;64039;53.060;9.342;2023-02-01T00:16:15;100941.44;;;4.36;100.00
75460;BME280;64039;53.060;9.342;2023-02-01T00:18:44;100934.56;;;4.36;100.00
75460;BME280;64039;53.060;9.342;2023-02-01T00:21:11;100941.50;;;4.37;100.00
75460;BME280;64039;53.060;9.342;2023-02-01T00:23:38;100925.59;;;4.28;100.00
75460;BME280;64039;53.060;9.342;2023-02-01T00:26:05;100932.56;;;4.31;100.00
75460;BME280;64039;53.060;9.342;2023-02-01T00:28:31;100926.38;;;4.27;100.00
75460;BME280;64039;53.060;9.342;2023-02-01T00:31:01;100926.03;;;4.37;100.00
75460;BME280;64039;53.060;9.342;2023-02-01T00:33:27;100931.13;;;4.36;100.00
75460;BME280;64039;53.060;9.342;2023-02-01T00:35:57;100927.81;;;4.38;100.00
75460;BME280;64039;53.060;9.342;2023-02-01T00:38:24;100911.09;;;4.30;100.00
75460;BME280;64039;53.060;9.342;2023-02-01T00:40:50;100917.28;;;4.34;100.00
75460;BME280;64039;53.060;9.342;2023-02-01T00:43:16;100925.97;;;4.36;100.00
75460;BME280;64039;53.060;9.342;2023-02-01T00:45:41;100911.31;;;4.35;100.00
75460;BME280;64039;53.060;9.342;2023-02-01T00:48:07;100914.97;;;4.40;100.00
75460;BME280;64039;53.060;9.342;2023-02-01T00:50:32;100928.03;;;4.43;100.00
75460;BME280;64039;53.060;9.342;2023-02-01T00:52:58;100911.88;;;4.47;100.00
75460;BME280;64039;53.060;9.342;2023-02-01T00:55:23;100922.78;;;4.41;100.00
75460;BME280;64039;53.060;9.342;2023-02-01T00:57:48;100923.97;;;4.48;100.00
75460;BME280;64039;53.060;9.342;2023-02-01T01:00:14;100925.66;;;4.48;100.00
75460;BME280;64039;53.060;9.342;2023-02-01T01:02:41;100926.53;;;4.48;100.00
75460;BME280;64039;53.060;9.342;2023-02-01T01:05:06;100926.59;;;4.50;100.00
75460;BME280;64039;53.060;9.342;2023-02-01T01:07:32;100914.97;;;4.58;100.00
75460;BME280;64039;53.060;9.342;2023-02-01T01:09:57;100912.09;;;4.52;100.00
75460;BME280;64039;53.060;9.342;2023-02-01T01:12:23;100920.50;;;4.48;100.00
75460;BME280;64039;53.060;9.342;2023-02-01T01:14:48;100913.66;;;4.48;100.00
75460;BME280;64039;53.060;9.342;2023-02-01T01:17:14;100912.09;;;4.52;100.00
75460;BME280;64039;53.060;9.342;2023-02-01T01:19:39;100907.91;;;4.54;100.00
75460;BME280;64039;53.060;9.342;2023-02-01T01:22:04;100907.09;;;4.55;100.00
75460;BME280;64039;53.060;9.342;2023-02-01T01:24:30;100904.59;;;4.56;100.00
75460;BME280;64039;53.060;9.342;2023-02-01T01:26:55;100903.72;;;4.56;100.00
75460;BME280;64039;53.060;9.342;2023-02-01T01:29:21;100890.19;;;4.62;100.00
75460;BME280;64039;53.060;9.342;2023-02-01T01:31:46;100885.72;;;4.57;100.00
75460;BME280;64039;53.060;9.342;2023-02-01T01:34:13;100890.13;;;4.60;100.00
75460;BME280;64039;53.060;9.342;2023-02-01T01:36:38;100901.25;;;4.59;100.00
75460;BME280;64039;53.060;9.342;2023-02-01T01:39:04;100895.34;;;4.62;100.00
75460;BME280;64039;53.060;9.342;2023-02-01T01:41:31;100882.19;;;4.55;100.00
75460;BME280;64039;53.060;9.342;2023-02-01T01:44:02;100887.78;;;4.65;100.00
75460;BME280;64039;53.060;9.342;2023-02-01T01:46:36;100878.28;;;4.64;100.00
75460;BME280;64039;53.060;9.342;2023-02-01T01:49:12;100877.69;;;4.69;100.00
75460;BME280;64039;53.060;9.342;2023-02-01T01:51:44;100875.69;;;4.64;100.00
75460;BME280;64039;53.060;9.342;2023-02-01T01:54:25;100882.47;;;4.62;100.00
75460;BME280;64039;53.060;9.342;2023-02-01T01:56:56;100870.09;;;4.72;100.00
75460;BME280;64039;53.060;9.342;2023-02-01T01:59:23;100872.59;;;4.71;100.00
75460;BME280;64039;53.060;9.342;2023-02-01T02:01:51;100864.72;;;4.68;100.00
75460;BME280;64039;53.060;9.342;2023-02-01T02:04:17;100868.78;;;4.63;100.00
75460;BME280;64039;53.060;9.342;2023-02-01T02:06:54;100856.31;;;4.72;100.00
75460;BME280;64039;53.060;9.342;2023-02-01T02:09:22;100860.97;;;4.61;100.00
75460;BME280;64039;53.060;9.342;2023-02-01T02:11:48;100855.38;;;4.70;100.00
75460;BME280;64039;53.060;9.342;2023-02-01T02:14:15;100859.63;;;4.69;100.00
75460;BME280;64039;53.060;9.342;2023-02-01T02:33:51;100816.59;;;4.68;100.00
75460;BME280;64039;53.060;9.342;2023-02-01T02:39:31;100809.63;;;4.66;100.00
75460;BME280;64039;53.060;9.342;2023-02-01T02:45:17;100805.13;;;4.62;100.00
75460;BME280;64039;53.060;9.342;2023-02-01T02:50:59;100789.97;;;4.68;100.00
75460;BME280;64039;53.060;9.342;2023-02-01T02:54:03;100787.06;;;4.62;100.00
75460;BME280;64039;53.060;9.342;2023-02-01T02:56:48;100781.09;;;4.63;100.00
75460;BME280;64039;53.060;9.342;2023-02-01T02:59:34;100796.47;;;4.60;100.00
75460;BME280;64039;53.060;9.342;2023-02-01T03:02:20;100777.59;;;4.61;100.00
75460;BME280;64039;53.060;9.342;2023-02-01T03:05:04;100785.34;;;4.61;100.00
75460;BME280;64039;53.060;9.342;2023-02-01T03:10:37;100764.72;;;4.61;100.00
75460;BME280;64039;53.060;9.342;2023-02-01T03:13:13;100769.78;;;4.59;100.00
75460;BME280;64039;53.060;9.342;2023-02-01T03:18:55;100758.41;;;4.54;100.00
75460;BME280;64039;53.060;9.342;2023-02-01T03:24:04;100769.50;;;4.53;100.00
75460;BME280;64039;53.060;9.342;2023-02-01T03:26:36;100759.16;;;4.51;100.00
75460;BME280;64039;53.060;9.342;2023-02-01T03:29:11;100764.41;;;4.54;100.00
75460;BME280;64039;53.060;9.342;2023-02-01T03:31:40;100751.41;;;4.51;100.00
75460;BME280;64039;53.060;9.342;2023-02-01T03:34:06;100752.56;;;4.38;100.00
75460;BME280;64039;53.060;9.342;2023-02-01T03:39:39;100737.16;;;4.40;100.00
75460;BME280;64039;53.060;9.342;2023-02-01T03:42:14;100730.59;;;4.47;100.00
75460;BME280;64039;53.060;9.342;2023-02-01T03:44:53;100726.63;;;4.35;100.00
75460;BME280;64039;53.060;9.342;2023-02-01T03:47:23;100728.03;;;4.29;100.00
75460;BME280;64039;53.060;9.342;2023-02-01T03:49:54;100726.63;;;4.35;100.00
75460;BME280;64039;53.060;9.342;2023-02-01T03:52:28;100721.22;;;4.29;100.00
75460;BME280;64039;53.060;9.342;2023-02-01T03:54:56;100731.91;;;4.19;100.00
75460;BME280;64039;53.060;9.342;2023-02-01T03:57:27;100728.84;;;4.08;100.00
75460;BME280;64039;53.060;9.342;2023-02-01T04:00:04;100735.28;;;3.80;100.00
75460;BME280;64039;53.060;9.342;2023-02-01T04:02:30;100723.50;;;3.67;100.00
75460;BME280;64039;53.060;9.342;2023-02-01T04:04:55;100728.44;;;3.62;100.00
75460;BME280;64039;53.060;9.342;2023-02-01T04:07:21;100727.41;;;3.59;100.00
75460;BME280;64039;53.060;9.342;2023-02-01T04:09:46;100732.50;;;3.57;100.00
75460;BME280;64039;53.060;9.342;2023-02-01T04:12:11;100722.84;;;3.53;100.00
75460;BME280;64039;53.060;9.342;2023-02-01T04:14:37;100726.69;;;3.43;100.00
75460;BME280;64039;53.060;9.342;2023-02-01T04:17:02;100726.69;;;3.43;100.00
75460;BME280;64039;53.060;9.342;2023-02-01T04:19:28;100721.97;;;3.35;100.00
75460;BME280;64039;53.060;9.342;2023-02-01T04:21:53;100710.88;;;3.36;100.00
75460;BME280;64039;53.060;9.342;2023-02-01T04:24:19;100706.16;;;3.45;100.00
75460;BME280;64039;53.060;9.342;2023-02-01T04:26:44;100709.69;;;3.47;100.00
75460;BME280;64039;53.060;9.342;2023-02-01T04:29:09;100716.09;;;3.37;100.00
75460;BME280;64039;53.060;9.342;2023-02-01T04:31:35;100717.88;;;3.38;100.00
75460;BME280;64039;53.060;9.342;2023-02-01T04:34:01;100730.84;;;3.23;100.00
75460;BME280;64039;53.060;9.342;2023-02-01T04:36:27;100719.59;;;3.21;100.00
75460;BME280;64039;53.060;9.342;2023-02-01T04:38:52;100728.91;;;3.19;100.00
75460;BME280;64039;53.060;9.342;2023-02-01T04:41:18;100712.31;;;3.12;100.00
75460;BME280;64039;53.060;9.342;2023-02-01T04:43:48;100704.31;;;3.06;100.00
75460;BME280;64039;53.060;9.342;2023-02-01T04:46:14;100694.81;;;3.05;100.00
75460;BME280;64039;53.060;9.342;2023-02-01T04:48:39;100682.19;;;3.10;100.00
75460;BME280;64039;53.060;9.342;2023-02-01T04:51:05;100656.03;;;3.01;100.00
75460;BME280;64039;53.060;9.342;2023-02-01T04:53:31;100655.06;;;2.98;100.00
75460;BME280;64039;53.060;9.342;2023-02-01T04:55:56;100649.47;;;3.07;100.00
75460;BME280;64039;53.060;9.342;2023-02-01T04:58:22;100645.16;;;3.06;100.00
75460;BME280;64039;53.060;9.342;2023-02-01T05:00:47;100646.47;;;3.16;100.00
75460;BME280;64039;53.060;9.342;2023-02-01T05:03:13;100649.47;;;3.07;100.00
75460;BME280;64039;53.060;9.342;2023-02-01T05:05:39;100653.28;;;3.15;100.00
75460;BME280;64039;53.060;9.342;2023-02-01T05:08:04;100649.06;;;3.16;100.00
75460;BME280;64039;53.060;9.342;2023-02-01T05:10:29;100635.44;;;3.19;100.00
75460;BME280;64039;53.060;9.342;2023-02-01T05:12:55;100686.44;;;3.27;100.00
75460;BME280;64039;53.060;9.342;2023-02-01T05:15:39;100687.63;;;2.98;100.00
75460;BME280;64039;53.060;9.342;2023-02-01T05:18:04;100685.06;;;2.65;100.00
75460;BME280;64039;53.060;9.342;2023-02-01T05:20:30;100680.50;;;2.76;100.00
75460;BME280;64039;53.060;9.342;2023-02-01T05:22:55;100658.41;;;2.79;100.00
75460;BME280;64039;53.060;9.342;2023-02-01T05:25:21;100645.69;;;2.82;100.00
75460;BME280;64039;53.060;9.342;2023-02-01T05:27:46;100663.75;;;3.01;100.00
75460;BME280;64039;53.060;9.342;2023-02-01T05:30:12;100658.03;;;3.06;100.00
75460;BME280;64039;53.060;9.342;2023-02-01T05:32:38;100636.13;;;3.14;100.00
75460;BME280;64039;53.060;9.342;2023-02-01T05:35:03;100631.34;;;3.22;100.00
75460;BME280;64039;53.060;9.342;2023-02-01T05:37:29;100636.13;;;3.33;100.00
75460;BME280;64039;53.060;9.342;2023-02-01T05:39:54;100624.13;;;3.33;100.00
75460;BME280;64039;53.060;9.342;2023-02-01T05:42:20;100624.56;;;3.42;100.00
75460;BME280;64039;53.060;9.342;2023-02-01T05:44:45;100623.75;;;3.43;100.00
75460;BME280;64039;53.060;9.342;2023-02-01T05:47:10;100633.75;;;3.37;100.00
75460;BME280;64039;53.060;9.342;2023-02-01T05:49:37;100633.25;;;3.44;100.00
75460;BME280;64039;53.060;9.342;2023-02-01T05:52:03;100637.41;;;3.42;100.00
75460;BME280;64039;53.060;9.342;2023-02-01T05:54:28;100634.03;;;3.43;100.00
75460;BME280;64039;53.060;9.342;2023-02-01T05:56:54;100637.38;;;3.41;100.00
75460;BME280;64039;53.060;9.342;2023-02-01T05:59:19;100633.69;;;3.36;100.00
75460;BME280;64039;53.060;9.342;2023-02-01T06:01:45;100640.75;;;3.40;100.00
75460;BME280;64039;53.060;9.342;2023-02-01T06:04:10;100646.69;;;3.39;100.00
75460;BME280;64039;53.060;9.342;2023-02-01T06:06:35;100632.22;;;3.41;100.00
75460;BME280;64039;53.060;9.342;2023-02-01T06:09:02;100636.63;;;3.43;100.00
75460;BME280;64039;53.060;9.342;2023-02-01T06:11:28;100681.59;;;3.52;100.00
75460;BME280;64039;53.060;9.342;2023-02-01T06:13:54;100638.06;;;3.56;100.00
75460;BME280;64039;53.060;9.342;2023-02-01T06:16:21;100646.81;;;3.60;100.00
75460;BME280;64039;53.060;9.342;2023-02-01T06:18:46;100643.22;;;3.56;100.00
75460;BME280;64039;53.060;9.342;2023-02-01T06:21:12;100653.50;;;3.56;100.00
75460;BME280;64039;53.060;9.342;2023-02-01T06:23:39;100662.94;;;3.56;100.00
75460;BME280;64039;53.060;9.342;2023-02-01T06:26:06;100651.09;;;3.59;100.00
75460;BME280;64039;53.060;9.342;2023-02-01T06:28:35;100656.31;;;3.61;100.00
75460;BME280;64039;53.060;9.342;2023-02-01T06:31:06;100656.09;;;3.56;100.00
75460;BME280;64039;53.060;9.342;2023-02-01T06:33:36;100635.13;;;3.49;100.00
75460;BME280;64039;53.060;9.342;2023-02-01T06:36:04;100655.94;;;3.53;100.00
75460;BME280;64039;53.060;9.342;2023-02-01T06:38:31;100666.44;;;3.58;100.00
75460;BME280;64039;53.060;9.342;2023-02-01T06:40:58;100666.38;;;3.56;100.00
75460;BME280;64039;53.060;9.342;2023-02-01T06:43:24;100686.38;;;3.62;100.00
75460;BME280;64039;53.060;9.342;2023-02-01T06:45:51;100688.16;;;3.63;100.00
75460;BME280;64039;53.060;9.342;2023-02-01T06:48:16;100682.91;;;3.61;100.00
75460;BME280;64039;53.060;9.342;2023-02-01T06:50:42;100682.84;;;3.60;100.00
75460;BME280;64039;53.060;9.342;2023-02-01T06:53:07;100705.94;;;3.58;100.00
75460;BME280;64039;53.060;9.342;2023-02-01T06:55:32;100699.47;;;3.49;100.00
75460;BME280;64039;53.060;9.342;2023-02-01T06:57:58;100702.19;;;3.52;100.00
75460;BME280;64039;53.060;9.342;2023-02-01T07:00:23;100700.31;;;3.48;100.00
75460;BME280;64039;53.060;9.342;2023-02-01T07:02:49;100710.94;;;3.55;100.00
75460;BME280;64039;53.060;9.342;2023-02-01T07:05:15;100716.31;;;3.60;100.00
75460;BME280;64039;53.060;9.342;2023-02-01T07:07:41;100713.75;;;3.60;100.00
75460;BME280;64039;53.060;9.342;2023-02-01T07:10:06;100706.81;;;3.59;100.00
75460;BME280;64039;53.060;9.342;2023-02-01T07:12:32;100700.44;;;3.69;100.00
75460;BME280;64039;53.060;9.342;2023-02-01T07:14:57;100711.38;;;3.65;100.00
75460;BME280;64039;53.060;9.342;2023-02-01T07:17:23;100694.25;;;3.65;100.00
75460;BME280;64039;53.060;9.342;2023-02-01T07:19:48;100708.81;;;3.65;100.00
75460;BME280;64039;53.060;9.342;2023-02-01T07:22:17;100692.41;;;3.62;100.00
75460;BME280;64039;53.060;9.342;2023-02-01T07:24:42;100702.19;;;3.70;100.00
75460;BME280;64039;53.060;9.342;2023-02-01T07:27:08;100716.00;;;3.72;100.00
75460;BME280;64039;53.060;9.342;2023-02-01T07:29:33;100715.03;;;3.70;100.00
75460;BME280;64039;53.060;9.342;2023-02-01T07:31:59;100720.06;;;3.67;100.00
75460;BME280;64039;53.060;9.342;2023-02-01T07:34:25;100732.78;;;3.64;100.00
75460;BME280;64039;53.060;9.342;2023-02-01T07:36:51;100717.00;;;3.56;100.00
75460;BME280;64039;53.060;9.342;2023-02-01T07:39:16;100709.97;;;3.53;100.00
75460;BME280;64039;53.060;9.342;2023-02-01T07:41:42;100699.09;;;3.59;100.00
75460;BME280;64039;53.060;9.342;2023-02-01T07:44:07;100708.75;;;3.63;100.00
75460;BME280;64039;53.060;9.342;2023-02-01T07:46:32;100695.94;;;3.65;100.00
75460;BME280;64039;53.060;9.342;2023-02-01T07:48:58;100710.97;;;3.73;100.00
75460;BME280;64039;53.060;9.342;2023-02-01T07:51:23;100713.66;;;3.76;100.00
75460;BME280;64039;53.060;9.342;2023-02-01T07:53:49;100718.88;;;3.78;100.00
75460;BME280;64039;53.060;9.342;2023-02-01T07:56:16;100717.19;;;3.78;100.00
75460;BME280;64039;53.060;9.342;2023-02-01T07:58:42;100722.56;;;3.83;100.00
75460;BME280;64039;53.060;9.342;2023-02-01T08:01:17;100735.22;;;3.78;100.00
75460;BME280;64039;53.060;9.342;2023-02-01T08:03:49;100731.25;;;3.85;100.00
75460;BME280;64039;53.060;9.342;2023-02-01T08:06:15;100737.53;;;3.92;100.00
75460;BME280;64039;53.060;9.342;2023-02-01T08:08:41;100735.78;;;3.91;100.00
75460;BME280;64039;53.060;9.342;2023-02-01T08:11:07;100746.91;;;3.90;100.00
75460;BME280;64039;53.060;9.342;2023-02-01T08:13:33;100739.47;;;3.96;100.00
75460;BME280;64039;53.060;9.342;2023-02-01T08:16:02;100743.94;;;4.00;100.00
75460;BME280;64039;53.060;9.342;2023-02-01T08:18:28;100739.59;;;3.99;100.00
75460;BME280;64039;53.060;9.342;2023-02-01T08:20:53;100740.72;;;4.04;100.00
75460;BME280;64039;53.060;9.342;2023-02-01T08:23:19;100740.75;;;4.06;100.00
75460;BME280;64039;53.060;9.342;2023-02-01T08:25:45;100740.91;;;4.09;100.00
75460;BME280;64039;53.060;9.342;2023-02-01T08:28:11;100746.28;;;4.14;100.00
75460;BME280;64039;53.060;9.342;2023-02-01T08:30:38;100753.31;;;4.18;100.00
75460;BME280;64039;53.060;9.342;2023-02-01T08:33:07;100757.06;;;4.24;100.00
75460;BME280;64039;53.060;9.342;2023-02-01T08:35:34;100767.81;;;4.34;100.00
75460;BME280;64039;53.060;9.342;2023-02-01T08:38:00;100761.91;;;4.36;100.00
75460;BME280;64039;53.060;9.342;2023-02-01T08:40:26;100741.22;;;4.35;100.00
75460;BME280;64039;53.060;9.342;2023-02-01T08:42:51;100755.94;;;4.37;100.00
75460;BME280;64039;53.060;9.342;2023-02-01T08:45:18;100762.13;;;4.41;100.00
75460;BME280;64039;53.060;9.342;2023-02-01T08:47:49;100756.91;;;4.39;100.00
75460;BME280;64039;53.060;9.342;2023-02-01T08:50:16;100767.69;;;4.50;100.00
75460;BME280;64039;53.060;9.342;2023-02-01T08:52:41;100773.97;;;4.37;100.00
75460;BME280;64039;53.060;9.342;2023-02-01T08:55:07;100772.28;;;4.38;100.00
75460;BME280;64039;53.060;9.342;2023-02-01T08:57:34;100764.53;;;4.18;100.00
75460;BME280;64039;53.060;9.342;2023-02-01T08:59:59;100756.59;;;4.14;100.00
75460;BME280;64039;53.060;9.342;2023-02-01T09:02:25;100760.84;;;4.13;100.00
75460;BME280;64039;53.060;9.342;2023-02-01T09:04:51;100759.22;;;4.15;100.00
75460;BME280;64039;53.060;9.342;2023-02-01T09:07:17;100766.56;;;4.25;100.00
75460;BME280;64039;53.060;9.342;2023-02-01T09:09:44;100754.22;;;4.38;100.00
75460;BME280;64039;53.060;9.342;2023-02-01T09:12:09;100753.59;;;4.24;100.00
75460;BME280;64039;53.060;9.342;2023-02-01T09:14:35;100753.22;;;4.34;100.00
75460;BME280;64039;53.060;9.342;2023-02-01T09:17:00;100763.72;;;4.39;100.00
75460;BME280;64039;53.060;9.342;2023-02-01T09:19:26;100762.38;;;4.47;100.00
75460;BME280;64039;53.060;9.342;2023-02-01T09:21:51;100748.69;;;4.48;100.00
75460;BME280;64039;53.060;9.342;2023-02-01T09:24:17;100756.84;;;4.57;100.00
75460;BME280;64039;53.060;9.342;2023-02-01T09:26:42;100749.25;;;4.61;100.00
75460;BME280;64039;53.060;9.342;2023-02-01T09:29:08;100765.78;;;4.66;100.00
75460;BME280;64039;53.060;9.342;2023-02-01T09:31:37;100749.38;;;4.64;100.00
75460;BME280;64039;53.060;9.342;2023-02-01T09:34:03;100743.59;;;4.69;100.00
75460;BME280;64039;53.060;9.342;2023-02-01T09:36:29;100736.22;;;4.77;100.00
75460;BME280;64039;53.060;9.342;2023-02-01T09:38:55;100740.69;;;4.81;100.00
75460;BME280;64039;53.060;9.342;2023-02-01T09:41:48;100729.50;;;4.81;100.00
75460;BME280;64039;53.060;9.342;2023-02-01T09:47:01;100738.44;;;4.89;100.00
75460;BME280;64039;53.060;9.342;2023-02-01T09:49:32;100732.94;;;4.81;100.00
75460;BME280;64039;53.060;9.342;2023-02-01T09:52:01;100730.81;;;4.92;100.00
75460;BME280;64039;53.060;9.342;2023-02-01T09:54:56;100724.72;;;4.90;100.00
75460;BME280;64039;53.060;9.342;2023-02-01T09:57:37;100737.31;;;5.03;100.00
75460;BME280;64039;53.060;9.342;2023-02-01T10:00:25;100731.91;;;4.97;100.00
75460;BME280;64039;53.060;9.342;2023-02-01T10:02:53;100726.25;;;5.06;100.00
75460;BME280;64039;53.060;9.342;2023-02-01T10:05:39;100732.91;;;5.01;100.00
75460;BME280;64039;53.060;9.342;2023-02-01T10:08:19;100727.38;;;5.13;100.00
75460;BME280;64039;53.060;9.342;2023-02-01T10:10:52;100728.34;;;5.15;100.00
75460;BME280;64039;53.060;9.342;2023-02-01T10:13:30;100722.47;;;5.19;100.00
75460;BME280;64039;53.060;9.342;2023-02-01T10:16:22;100719.13;;;5.22;100.00
75460;BME280;64039;53.060;9.342;2023-02-01T10:21:50;100717.50;;;5.24;100.00
75460;BME280;64039;53.060;9.342;2023-02-01T10:24:44;100713.53;;;5.32;100.00
75460;BME280;64039;53.060;9.342;2023-02-01T10:27:23;100714.69;;;5.17;100.00
75460;BME280;64039;53.060;9.342;2023-02-01T10:30:05;100720.84;;;5.21;100.00
75460;BME280;64039;53.060;9.342;2023-02-01T10:32:39;100697.38;;;5.15;100.00
75460;BME280;64039;53.060;9.342;2023-02-01T10:35:28;100708.94;;;5.25;100.00
75460;BME280;64039;53.060;9.342;2023-02-01T10:37:55;100696.56;;;5.16;100.00
75460;BME280;64039;53.060;9.342;2023-02-01T10:40:25;100695.53;;;5.12;100.00
75460;BME280;64039;53.060;9.342;2023-02-01T10:42:57;100695.63;;;5.14;100.00
75460;BME280;64039;53.060;9.342;2023-02-01T10:45:26;100687.13;;;5.16;100.00
75460;BME280;64039;53.060;9.342;2023-02-01T10:47:55;100685.06;;;5.08;100.00
75460;BME280;64039;53.060;9.342;2023-02-01T10:52:54;100678.22;;;4.88;100.00
75460;BME280;64039;53.060;9.342;2023-02-01T10:58:00;100671.44;;;4.91;100.00
75460;BME280;64039;53.060;9.342;2023-02-01T11:00:27;100664.22;;;4.82;100.00
75460;BME280;64039;53.060;9.342;2023-02-01T11:02:54;100654.00;;;4.85;100.00
75460;BME280;64039;53.060;9.342;2023-02-01T11:05:20;100652.63;;;4.93;100.00
75460;BME280;64039;53.060;9.342;2023-02-01T11:07:53;100655.81;;;4.87;100.00
75460;BME280;64039;53.060;9.342;2023-02-01T11:10:41;100656.47;;;4.82;100.00
75460;BME280;64039;53.060;9.342;2023-02-01T11:13:17;100658.72;;;4.54;100.00
75460;BME280;64039;53.060;9.342;2023-02-01T11:15:46;100643.97;;;4.50;100.00
75460;BME280;64039;53.060;9.342;2023-02-01T11:18:24;100630.84;;;4.24;100.00
75460;BME280;64039;53.060;9.342;2023-02-01T11:20:52;100640.44;;;4.29;100.00
75460;BME280;64039;53.060;9.342;2023-02-01T11:23:30;100632.34;;;4.19;100.00
75460;BME280;64039;53.060;9.342;2023-02-01T11:25:58;100634.34;;;4.07;100.00
75460;BME280;64039;53.060;9.342;2023-02-01T11:28:30;100621.28;;;4.02;100.00
75460;BME280;64039;53.060;9.342;2023-02-01T11:31:00;100623.03;;;4.03;100.00
75460;BME280;64039;53.060;9.342;2023-02-01T11:33:31;100607.44;;;4.00;100.00
75460;BME280;64039;53.060;9.342;2023-02-01T11:35:59;100604.19;;;4.04;100.00
75460;BME280;64039;53.060;9.342;2023-02-01T11:38:28;100607.53;;;4.02;100.00
75460;BME280;64039;53.060;9.342;2023-02-01T11:40:57;100607.94;;;4.11;100.00
75460;BME280;64039;53.060;9.342;2023-02-01T11:43:36;100623.44;;;4.13;100.00
75460;BME280;64039;53.060;9.342;2023-02-01T11:46:03;100586.50;;;3.92;100.00
75460;BME280;64039;53.060;9.342;2023-02-01T11:48:31;100574.03;;;3.82;100.00
75460;BME280;64039;53.060;9.342;2023-02-01T11:51:35;100567.13;;;3.81;100.00
75460;BME280;64039;53.060;9.342;2023-02-01T11:54:08;100568.75;;;3.79;100.00
75460;BME280;64039;53.060;9.342;2023-02-01T11:56:37;100546.66;;;3.84;100.00
75460;BME280;64039;53.060;9.342;2023-02-01T12:17:05;100485.28;;;3.74;100.00
75460;BME280;64039;53.060;9.342;2023-02-01T12:19:58;100469.22;;;3.80;100.00
75460;BME280;64039;53.060;9.342;2023-02-01T12:23:37;100478.88;;;3.64;100.00
75460;BME280;64039;53.060;9.342;2023-02-01T12:31:34;100471.25;;;3.67;100.00
75460;BME280;64039;53.060;9.342;2023-02-01T12:34:38;100473.31;;;3.55;100.00
75460;BME280;64039;53.060;9.342;2023-02-01T12:37:10;100506.28;;;3.44;100.00
75460;BME280;64039;53.060;9.342;2023-02-01T12:39:40;100552.28;;;3.18;100.00
75460;BME280;64039;53.060;9.342;2023-02-01T12:42:36;100606.44;;;2.85;100.00
75460;BME280;64039;53.060;9.342;2023-02-01T12:45:31;100604.50;;;1.64;100.00
75460;BME280;64039;53.060;9.342;2023-02-01T12:48:08;100586.88;;;1.53;100.00
75460;BME280;64039;53.060;9.342;2023-02-01T12:50:45;100542.47;;;1.38;100.00
75460;BME280;64039;53.060;9.342;2023-02-01T12:56:03;100568.91;;;1.37;100.00
75460;BME280;64039;53.060;9.342;2023-02-01T12:58:43;100563.59;;;1.34;100.00
75460;BME280;64039;53.060;9.342;2023-02-01T13:01:28;100569.81;;;1.22;100.00
75460;BME280;64039;53.060;9.342;2023-02-01T13:05:05;100580.66;;;1.33;100.00
75460;BME280;64039;53.060;9.342;2023-02-01T13:07:12;100580.75;;;1.35;100.00
75460;BME280;64039;53.060;9.342;2023-02-01T13:09:45;100573.84;;;1.34;100.00
75460;BME280;64039;53.060;9.342;2023-02-01T13:12:20;100582.38;;;1.49;100.00
75460;BME280;64039;53.060;9.342;2023-02-01T13:15:02;100582.53;;;1.52;100.00
75460;BME280;64039;53.060;9.342;2023-02-01T13:17:32;100581.75;;;1.70;100.00
75460;BME280;64039;53.060;9.342;2023-02-01T13:20:19;100588.41;;;1.66;100.00
75460;BME280;64039;53.060;9.342;2023-02-01T13:23:28;100569.25;;;1.76;100.00
75460;BME280;64039;53.060;9.342;2023-02-01T13:25:55;100563.16;;;1.74;100.00
75460;BME280;64039;53.060;9.342;2023-02-01T13:28:26;100573.09;;;1.84;100.00
75460;BME280;64039;53.060;9.342;2023-02-01T13:39:58;100569.41;;;1.96;100.00
75460;BME280;64039;53.060;9.342;2023-02-01T13:42:31;100587.47;;;1.97;100.00
75460;BME280;64039;53.060;9.342;2023-02-01T13:45:05;100587.88;;;2.05;100.00
75460;BME280;64039;53.060;9.342;2023-02-01T13:47:41;100587.22;;;2.09;100.00
75460;BME280;64039;53.060;9.342;2023-02-01T13:50:18;100576.22;;;2.12;100.00
75460;BME280;64039;53.060;9.342;2023-02-01T13:52:53;100578.69;;;2.27;100.00
75460;BME280;64039;53.060;9.342;2023-02-01T13:57:50;100580.38;;;2.61;100.00
75460;BME280;64039;53.060;9.342;2023-02-01T14:00:34;100607.22;;;2.84;100.00
75460;BME280;64039;53.060;9.342;2023-02-01T14:08:12;100584.97;;;2.85;100.00
75460;BME280;64039;53.060;9.342;2023-02-01T14:23:44;100598.91;;;3.26;100.00
75460;BME280;64039;53.060;9.342;2023-02-01T14:26:13;100602.81;;;3.36;100.00
75460;BME280;64039;53.060;9.342;2023-02-01T14:34:29;100595.63;;;3.66;100.00
75460;BME280;64039;53.060;9.342;2023-02-01T14:37:06;100597.81;;;3.76;100.00
75460;BME280;64039;53.060;9.342;2023-02-01T14:39:46;100581.56;;;3.77;100.00
75460;BME280;64039;53.060;9.342;2023-02-01T14:42:25;100588.78;;;3.86;100.00
75460;BME280;64039;53.060;9.342;2023-02-01T14:44:54;100585.56;;;3.90;100.00
75460;BME280;64039;53.060;9.342;2023-02-01T14:49:59;100598.28;;;4.07;100.00
75460;BME280;64039;53.060;9.342;2023-02-01T14:52:39;100584.88;;;4.14;100.00
75460;BME280;64039;53.060;9.342;2023-02-01T14:55:40;100578.34;;;4.22;100.00
75460;BME280;64039;53.060;9.342;2023-02-01T15:04:13;100583.00;;;4.72;100.00
75460;BME280;64039;53.060;9.342;2023-02-01T15:09:20;100587.38;;;4.96;100.00